Time;durP1;ratioP1;P1;durP2;ratioP2;P2;SDS_P1;SDS_P2;PMS_P1;PMS_P2;Temp;Humidity;BMP_temperature;BMP_pressure;BME280_temperature;BME280_humidity;BME280_pressure;Samples;Min_cycle;Max_cycle;Signal;HPM_P1;HPM_P2
2023/11/23 00:02:13;;;;;;;50.60;25.70;;;;;;;-2.78;76.49;99894.73;108756;1251;94344;-74
2023/11/23 00:04:39;;;;;;;45.00;21.70;;;;;;;-2.79;76.63;99890.74;108781;1251;94291;-72
2023/11/23 00:07:06;;;;;;;45.90;22.80;;;;;;;-2.76;76.89;99883.78;108849;1251;94471;-73
2023/11/23 00:09:33;;;;;;;47.20;25.40;;;;;;;-2.71;76.80;99877.52;108832;1251;94553;-73
2023/11/23 00:12:00;;;;;;;48.00;24.70;;;;;;;-2.69;76.72;99884.79;108843;1251;94751;-73
2023/11/23 00:14:30;;;;;;;48.30;24.30;;;;;;;-2.66;76.78;99881.31;108889;1251;95293;-74
2023/11/23 00:16:57;;;;;;;50.70;24.90;;;;;;;-2.63;76.83;99873.99;108822;1251;107113;-73
2023/11/23 00:19:23;;;;;;;52.80;25.00;;;;;;;-2.62;76.63;99874.85;108792;1251;94525;-73
2023/11/23 00:21:50;;;;;;;54.30;25.30;;;;;;;-2.60;76.69;99863.38;108904;1250;95353;-72
2023/11/23 00:24:17;;;;;;;45.00;22.40;;;;;;;-2.58;76.77;99855.38;108856;1251;94358;-74
2023/11/23 00:26:44;;;;;;;47.50;22.00;;;;;;;-2.56;76.79;99863.19;108912;1251;94428;-73
2023/11/23 00:29:10;;;;;;;42.10;22.00;;;;;;;-2.52;76.78;99856.58;108747;1251;94534;-74
2023/11/23 00:31:37;;;;;;;43.60;22.90;;;;;;;-2.51;76.69;99861.60;108811;1251;94195;-73
2023/11/23 00:34:05;;;;;;;47.50;23.60;;;;;;;-2.49;76.81;99852.20;108790;1251;95522;-73
2023/11/23 00:36:32;;;;;;;43.20;22.00;;;;;;;-2.49;76.60;99846.30;108881;1251;94707;-72
2023/11/23 00:38:58;;;;;;;39.00;20.40;;;;;;;-2.46;76.72;99840.20;108779;1251;94261;-72
2023/11/23 00:41:25;;;;;;;39.40;19.00;;;;;;;-2.46;76.69;99825.61;108893;1251;94394;-73
2023/11/23 00:43:51;;;;;;;38.20;19.50;;;;;;;-2.42;76.73;99818.45;108938;1251;101530;-73
2023/11/23 00:46:18;;;;;;;39.10;18.60;;;;;;;-2.37;76.85;99815.80;108964;1251;94321;-74
2023/11/23 00:48:44;;;;;;;37.90;18.50;;;;;;;-2.33;77.00;99821.34;108824;1251;94403;-73
2023/11/23 00:51:11;;;;;;;36.00;17.20;;;;;;;-2.30;76.75;99818.89;108868;1251;94476;-73
2023/11/23 00:53:38;;;;;;;35.70;17.70;;;;;;;-2.26;76.74;99810.17;108821;1254;94227;-73
2023/11/23 00:56:04;;;;;;;33.50;17.40;;;;;;;-2.23;76.88;99801.96;108892;1251;94559;-73
2023/11/23 00:58:31;;;;;;;34.80;17.90;;;;;;;-2.21;76.84;99793.09;108823;1251;107701;-73
2023/11/23 01:00:57;;;;;;;35.70;17.60;;;;;;;-2.17;76.82;99771.33;108806;1251;94342;-73
2023/11/23 01:03:24;;;;;;;33.40;16.60;;;;;;;-2.18;76.80;99756.91;108818;1253;94245;-73
2023/11/23 01:05:51;;;;;;;31.60;16.30;;;;;;;-2.16;76.55;99751.34;108823;1251;94741;-72
2023/11/23 01:08:18;;;;;;;32.70;16.10;;;;;;;-2.17;76.61;99746.48;108858;1251;94283;-72
2023/11/23 01:10:44;;;;;;;36.00;17.80;;;;;;;-2.15;76.65;99745.59;108835;1251;94539;-73
2023/11/23 01:13:12;;;;;;;32.80;16.60;;;;;;;-2.11;76.70;99747.30;108832;1251;94364;-74
2023/11/23 01:15:39;;;;;;;33.80;16.90;;;;;;;-2.11;76.63;99738.09;108855;1251;94360;-73
2023/11/23 01:18:05;;;;;;;30.20;15.90;;;;;;;-2.12;76.39;99726.11;108839;1250;94469;-72
2023/11/23 01:20:32;;;;;;;32.60;16.40;;;;;;;-2.14;76.52;99723.36;108783;1251;94672;-73
2023/11/23 01:22:58;;;;;;;31.00;15.80;;;;;;;-2.15;76.39;99731.70;108858;1253;94177;-73
2023/11/23 01:25:25;;;;;;;33.70;16.60;;;;;;;-2.13;76.38;99732.72;108999;1250;94738;-73
2023/11/23 01:27:51;;;;;;;30.00;15.10;;;;;;;-2.10;76.40;99732.70;108887;1251;95643;-74
2023/11/23 01:30:18;;;;;;;29.20;14.50;;;;;;;-2.06;76.73;99722.40;108795;1251;95026;-72
2023/11/23 01:32:44;;;;;;;28.20;13.70;;;;;;;-1.99;76.78;99715.19;108817;1253;94290;-73
2023/11/23 01:35:12;;;;;;;27.50;13.40;;;;;;;-1.93;76.80;99714.25;108917;1250;94295;-73
2023/11/23 01:37:38;;;;;;;29.20;13.50;;;;;;;-1.88;76.86;99710.39;108835;1251;95299;-74
2023/11/23 01:40:06;;;;;;;27.60;14.10;;;;;;;-1.83;76.69;99704.23;108930;1250;94352;-73
2023/11/23 01:42:32;;;;;;;30.70;14.50;;;;;;;-1.80;76.88;99704.02;108814;1251;94727;-73
2023/11/23 01:44:59;;;;;;;28.30;12.90;;;;;;;-1.75;76.83;99692.84;108963;1250;94494;-73
2023/11/23 01:47:27;;;;;;;29.30;13.90;;;;;;;-1.73;76.51;99687.24;108897;1250;94786;-72
2023/11/23 01:49:55;;;;;;;31.20;15.50;;;;;;;-1.72;76.63;99685.84;108889;1251;95089;-74
2023/11/23 01:52:21;;;;;;;27.40;13.70;;;;;;;-1.70;76.59;99686.35;108862;1250;94607;-73
2023/11/23 01:54:48;;;;;;;28.70;14.60;;;;;;;-1.68;76.54;99685.45;108855;1250;95512;-73
2023/11/23 01:57:15;;;;;;;31.20;14.60;;;;;;;-1.66;76.64;99683.69;108826;1251;94722;-73
2023/11/23 01:59:43;;;;;;;30.20;14.30;;;;;;;-1.64;76.84;99679.83;108982;1251;94662;-73
2023/11/23 02:02:10;;;;;;;32.80;16.40;;;;;;;-1.59;76.65;99672.98;108853;1251;94342;-74
2023/11/23 02:04:36;;;;;;;29.70;15.30;;;;;;;-1.56;76.84;99668.08;108918;1250;94571;-72
2023/11/23 02:07:03;;;;;;;30.70;15.10;;;;;;;-1.55;76.57;99664.06;108918;1250;94655;-73
2023/11/23 02:09:30;;;;;;;30.80;15.30;;;;;;;-1.54;76.73;99661.79;108830;1251;109090;-73
2023/11/23 02:11:57;;;;;;;29.70;15.30;;;;;;;-1.53;76.74;99662.30;108849;1250;95260;-73
2023/11/23 02:14:24;;;;;;;30.80;15.70;;;;;;;-1.54;76.44;99654.48;108979;1251;94623;-73
2023/11/23 02:16:51;;;;;;;34.20;15.60;;;;;;;-1.54;76.65;99657.78;108767;1251;94306;-73
2023/11/23 02:19:17;;;;;;;29.30;14.60;;;;;;;-1.53;76.72;99646.11;108903;1254;94377;-73
2023/11/23 02:21:44;;;;;;;28.50;13.70;;;;;;;-1.49;76.55;99643.10;108908;1250;94467;-73
2023/11/23 02:24:13;;;;;;;30.80;14.60;;;;;;;-1.49;76.58;99637.38;108908;1251;94573;-73
2023/11/23 02:26:40;;;;;;;30.70;14.10;;;;;;;-1.48;76.72;99636.31;108869;1251;94410;-72
2023/11/23 02:29:06;;;;;;;29.80;15.60;;;;;;;-1.44;76.77;99636.79;108795;1250;94731;-72
2023/11/23 02:31:33;;;;;;;29.90;15.70;;;;;;;-1.42;76.89;99650.48;108811;1251;94311;-72
2023/11/23 02:34:02;;;;;;;30.90;15.30;;;;;;;-1.39;76.90;99656.54;108893;1250;94749;-73
2023/11/23 02:36:29;;;;;;;28.90;14.00;;;;;;;-1.36;76.68;99653.36;108778;1251;94738;-72
2023/11/23 02:38:55;;;;;;;30.90;15.60;;;;;;;-1.33;76.68;99652.98;108854;1250;94593;-73
2023/11/23 02:41:22;;;;;;;28.20;13.80;;;;;;;-1.32;76.84;99643.21;108853;1251;94733;-72
2023/11/23 02:43:48;;;;;;;29.60;14.10;;;;;;;-1.36;76.41;99634.73;108955;1251;96442;-72
2023/11/23 02:46:15;;;;;;;27.60;13.90;;;;;;;-1.37;76.74;99624.13;108802;1251;107648;-73
2023/11/23 02:48:41;;;;;;;26.90;12.70;;;;;;;-1.35;76.76;99620.80;108807;1251;94345;-73
2023/11/23 02:51:08;;;;;;;28.30;13.90;;;;;;;-1.32;76.70;99613.10;108844;1251;94278;-73
2023/11/23 02:53:43;;;;;;;29.10;13.70;;;;;;;-1.31;76.62;99603.71;108809;1251;94350;-74
2023/11/23 02:56:10;;;;;;;29.30;14.70;;;;;;;-1.28;76.74;99594.44;108884;1250;95498;-73
2023/11/23 02:58:39;;;;;;;26.50;12.40;;;;;;;-1.29;76.45;99583.48;108801;1251;107736;-73
2023/11/23 03:01:05;;;;;;;27.80;13.10;;;;;;;-1.31;76.47;99586.64;108786;1251;94941;-74
2023/11/23 03:03:32;;;;;;;28.80;13.50;;;;;;;-1.30;76.56;99590.12;108800;1251;94267;-74
2023/11/23 03:05:59;;;;;;;25.00;12.30;;;;;;;-1.29;76.78;99588.17;108814;1251;94313;-72
2023/11/23 03:08:27;;;;;;;31.80;15.70;;;;;;;-1.27;76.61;99589.02;108842;1251;94390;-72
2023/11/23 03:10:54;;;;;;;26.80;13.40;;;;;;;-1.24;76.57;99595.59;108856;1251;94786;-73
2023/11/23 03:13:20;;;;;;;28.60;14.00;;;;;;;-1.22;76.47;99601.81;108780;1251;94315;-72
2023/11/23 03:15:49;;;;;;;26.70;13.80;;;;;;;-1.19;76.94;99593.77;108879;1251;94312;-73
2023/11/23 03:18:16;;;;;;;30.00;14.70;;;;;;;-1.16;76.73;99582.41;108750;1251;94660;-73
2023/11/23 03:20:43;;;;;;;26.80;13.10;;;;;;;-1.16;76.50;99572.48;108889;1251;94651;-72
2023/11/23 03:23:10;;;;;;;26.00;12.90;;;;;;;-1.15;76.68;99563.59;108826;1250;94608;-73
2023/11/23 03:25:36;;;;;;;29.00;13.90;;;;;;;-1.14;76.66;99555.91;108854;1251;94248;-73
2023/11/23 03:28:06;;;;;;;28.60;14.50;;;;;;;-1.13;76.52;99546.34;108923;1251;94302;-73
2023/11/23 03:30:34;;;;;;;27.50;13.50;;;;;;;-1.14;76.62;99540.08;108854;1250;95553;-73
2023/11/23 03:33:00;;;;;;;27.30;12.40;;;;;;;-1.15;76.43;99535.73;108884;1251;107626;-72
2023/11/23 03:35:27;;;;;;;27.90;13.80;;;;;;;-1.14;76.57;99530.52;108736;1250;94672;-72
2023/11/23 03:37:53;;;;;;;25.70;12.80;;;;;;;-1.14;76.80;99529.64;108906;1251;94242;-73
2023/11/23 03:40:20;;;;;;;27.00;12.20;;;;;;;-1.15;76.45;99528.79;108859;1250;94311;-73
2023/11/23 03:42:46;;;;;;;28.10;13.50;;;;;;;-1.17;76.51;99527.08;108898;1251;94368;-72
2023/11/23 03:45:13;;;;;;;26.30;13.00;;;;;;;-1.17;76.82;99525.68;108775;1251;94330;-74
2023/11/23 03:47:39;;;;;;;26.00;12.80;;;;;;;-1.14;76.53;99527.38;108858;1251;94251;-72
2023/11/23 03:50:06;;;;;;;27.30;13.90;;;;;;;-1.13;76.78;99528.92;108800;1251;94564;-73
2023/11/23 03:52:33;;;;;;;25.30;12.20;;;;;;;-1.11;76.72;99532.02;108899;1250;94731;-72
2023/11/23 03:54:59;;;;;;;26.50;12.10;;;;;;;-1.10;76.68;99536.54;108927;1250;94475;-72
2023/11/23 03:57:26;;;;;;;26.00;12.90;;;;;;;-1.10;76.69;99551.15;108827;1251;95094;-73
2023/11/23 03:59:52;;;;;;;28.30;12.90;;;;;;;-1.11;76.48;99562.31;108794;1251;94789;-73
2023/11/23 04:02:19;;;;;;;28.80;13.70;;;;;;;-1.13;76.53;99565.13;108837;1250;94358;-73
2023/11/23 04:04:45;;;;;;;26.40;13.20;;;;;;;-1.11;76.70;99561.95;108810;1251;94300;-73
2023/11/23 04:07:12;;;;;;;23.80;11.10;;;;;;;-1.12;76.78;99551.70;108850;1251;94430;-73
2023/11/23 04:09:38;;;;;;;26.10;12.00;;;;;;;-1.13;76.34;99544.05;108799;1251;110518;-73
2023/11/23 04:12:06;;;;;;;30.00;13.10;;;;;;;-1.11;76.78;99546.13;108874;1250;94310;-74
2023/11/23 04:14:33;;;;;;;29.80;13.20;;;;;;;-1.11;76.45;99539.33;108826;1250;94287;-73
2023/11/23 04:17:02;;;;;;;24.30;11.70;;;;;;;-1.10;76.59;99538.27;108824;1250;94198;-73
2023/11/23 04:19:29;;;;;;;26.60;12.20;;;;;;;-1.08;76.58;99526.40;108810;1251;94277;-73
2023/11/23 04:21:55;;;;;;;27.60;12.00;;;;;;;-1.09;76.63;99511.46;108897;1250;94380;-73
2023/11/23 04:24:22;;;;;;;27.10;13.40;;;;;;;-1.09;76.52;99499.61;108908;1250;94650;-74
2023/11/23 04:26:51;;;;;;;25.10;12.30;;;;;;;-1.07;76.48;99481.30;108867;1251;94313;-73
2023/11/23 04:29:17;;;;;;;27.80;13.50;;;;;;;-1.06;76.64;99464.56;108793;1253;94634;-73
2023/11/23 04:31:44;;;;;;;27.50;12.50;;;;;;;-1.03;76.84;99455.64;108851;1250;94704;-72
2023/11/23 04:34:13;;;;;;;28.10;13.80;;;;;;;-1.02;76.68;99450.23;108827;1251;94622;-73
2023/11/23 04:36:39;;;;;;;25.10;11.50;;;;;;;-1.03;76.48;99442.42;108839;1250;94476;-72
2023/11/23 04:39:06;;;;;;;29.50;13.30;;;;;;;-1.04;76.56;99443.47;108856;1251;94749;-73
2023/11/23 04:41:33;;;;;;;29.40;13.40;;;;;;;-1.03;76.81;99442.24;108979;1250;94621;-73
2023/11/23 04:44:00;;;;;;;27.30;13.90;;;;;;;-1.01;76.60;99427.58;108846;1250;95883;-73
2023/11/23 04:46:27;;;;;;;28.90;13.80;;;;;;;-1.01;76.56;99425.46;108789;1251;95331;-73
2023/11/23 04:48:54;;;;;;;25.80;12.60;;;;;;;-0.98;76.65;99417.75;108935;1250;94513;-73
2023/11/23 04:51:20;;;;;;;31.30;15.00;;;;;;;-0.94;76.73;99417.85;108877;1250;94257;-74
2023/11/23 04:53:47;;;;;;;27.80;13.60;;;;;;;-0.93;76.75;99417.83;108907;1250;94708;-73
2023/11/23 04:56:13;;;;;;;29.80;15.00;;;;;;;-0.92;76.73;99413.97;108855;1251;94287;-74
2023/11/23 04:58:40;;;;;;;29.10;14.20;;;;;;;-0.90;76.60;99415.34;108947;1250;107373;-73
2023/11/23 05:01:07;;;;;;;28.60;13.40;;;;;;;-0.88;76.56;99411.65;108867;1250;95334;-74
2023/11/23 05:03:34;;;;;;;29.60;13.70;;;;;;;-0.86;76.51;99407.09;108818;1251;94544;-73
2023/11/23 05:06:01;;;;;;;30.80;14.30;;;;;;;-0.86;76.55;99399.59;108924;1250;94271;-74
2023/11/23 05:08:28;;;;;;;31.10;14.80;;;;;;;-0.86;76.50;99393.32;108882;1250;94513;-72
2023/11/23 05:10:54;;;;;;;29.90;14.40;;;;;;;-0.85;76.46;99383.22;108935;1251;94255;-72
2023/11/23 05:13:21;;;;;;;31.10;15.00;;;;;;;-0.87;76.68;99377.67;108942;1250;95775;-73
2023/11/23 05:15:55;;;;;;;27.30;13.10;;;;;;;-0.86;76.53;99376.61;108887;1250;109168;-71
2023/11/23 05:18:21;;;;;;;31.60;14.30;;;;;;;-0.85;76.47;99373.45;108862;1250;94324;-73
2023/11/23 05:20:48;;;;;;;27.90;13.60;;;;;;;-0.84;76.56;99367.16;108831;1250;94476;-72
2023/11/23 05:23:14;;;;;;;34.10;14.70;;;;;;;-0.83;76.51;99367.51;108781;1251;94533;-73
2023/11/23 05:25:41;;;;;;;28.30;13.80;;;;;;;-0.83;76.56;99360.35;108909;1250;94718;-73
2023/11/23 05:28:08;;;;;;;27.00;14.80;;;;;;;-0.82;76.73;99353.38;108839;1251;94314;-73
2023/11/23 05:30:34;;;;;;;27.50;13.70;;;;;;;-0.80;76.76;99347.20;108863;1250;107239;-72
2023/11/23 05:33:01;;;;;;;34.50;16.00;;;;;;;-0.79;76.69;99340.41;108789;1251;94391;-73
2023/11/23 05:35:29;;;;;;;29.90;15.30;;;;;;;-0.80;76.50;99336.08;108869;1250;94649;-75
2023/11/23 05:37:57;;;;;;;36.70;17.50;;;;;;;-0.85;76.20;99328.88;108871;1250;94602;-76
2023/11/23 05:40:24;;;;;;;31.10;14.40;;;;;;;-0.88;76.37;99322.50;108790;1251;94429;-74
2023/11/23 05:42:50;;;;;;;28.30;14.00;;;;;;;-0.89;76.57;99313.83;108861;1250;94393;-79
2023/11/23 05:45:32;;;;;;;31.40;15.70;;;;;;;-0.86;76.37;99305.92;108797;1250;95019;-74
2023/11/23 05:47:58;;;;;;;29.80;15.10;;;;;;;-0.85;76.63;99300.16;108866;1251;94656;-78
2023/11/23 05:55:20;;;;;;;30.50;14.60;;;;;;;-0.79;76.70;99291.46;107688;1270;94663;-80
2023/11/23 05:57:54;;;;;;;30.70;14.60;;;;;;;-0.77;76.64;99286.02;108329;1255;107305;-80
2023/11/23 06:00:21;;;;;;;28.90;14.10;;;;;;;-0.74;76.48;99280.90;108838;1251;94481;-81
2023/11/23 06:02:48;;;;;;;30.90;14.50;;;;;;;-0.73;76.85;99276.17;108848;1250;94205;-75
2023/11/23 06:05:15;;;;;;;29.10;14.60;;;;;;;-0.70;76.36;99274.04;108648;1251;94632;-75
2023/11/23 06:07:41;;;;;;;31.50;15.10;;;;;;;-0.67;76.40;99273.61;108788;1250;94573;-73
2023/11/23 06:10:10;;;;;;;31.10;15.30;;;;;;;-0.67;76.63;99272.75;108675;1251;95717;-75
2023/11/23 06:12:38;;;;;;;29.10;14.60;;;;;;;-0.67;76.61;99267.34;108852;1250;94370;-77
2023/11/23 06:15:07;;;;;;;31.90;15.50;;;;;;;-0.65;76.36;99257.73;108716;1251;94519;-75
2023/11/23 06:17:35;;;;;;;33.70;14.70;;;;;;;-0.64;76.27;99257.17;108627;1251;109200;-75
2023/11/23 06:20:03;;;;;;;33.80;15.50;;;;;;;-0.65;76.38;99253.38;108776;1252;94316;-76
2023/11/23 06:22:30;;;;;;;32.80;15.30;;;;;;;-0.64;76.40;99251.95;108758;1251;107073;-74
2023/11/23 06:24:56;;;;;;;34.10;16.90;;;;;;;-0.63;76.50;99245.30;108797;1251;94986;-75
2023/11/23 06:27:23;;;;;;;30.20;15.80;;;;;;;-0.61;76.60;99238.98;108806;1250;94367;-74
2023/11/23 06:29:50;;;;;;;30.20;15.30;;;;;;;-0.59;76.52;99232.48;108731;1251;94394;-75
2023/11/23 06:32:17;;;;;;;32.50;16.70;;;;;;;-0.55;76.52;99217.23;108801;1251;94586;-72
2023/11/23 06:34:43;;;;;;;34.90;17.20;;;;;;;-0.56;76.10;99206.63;108766;1250;96809;-72
2023/11/23 06:37:10;;;;;;;30.40;14.90;;;;;;;-0.61;76.33;99198.20;108813;1250;94266;-73
2023/11/23 06:39:36;;;;;;;30.50;15.00;;;;;;;-0.64;76.28;99192.37;108871;1251;94734;-75
2023/11/23 06:42:03;;;;;;;31.20;15.60;;;;;;;-0.63;76.49;99191.48;108857;1250;94412;-74
2023/11/23 06:44:30;;;;;;;31.00;15.30;;;;;;;-0.61;76.30;99188.14;108891;1250;94274;-75
2023/11/23 06:46:56;;;;;;;30.90;14.50;;;;;;;-0.62;76.39;99190.05;108843;1250;94232;-75
2023/11/23 06:49:23;;;;;;;30.60;16.90;;;;;;;-0.59;76.42;99182.66;108804;1251;94305;-75
2023/11/23 06:51:49;;;;;;;31.60;14.40;;;;;;;-0.61;76.39;99172.98;108813;1251;94740;-75
2023/11/23 06:54:16;;;;;;;31.50;15.70;;;;;;;-0.60;76.49;99169.98;108773;1251;94267;-74
2023/11/23 06:56:42;;;;;;;30.00;15.10;;;;;;;-0.56;76.36;99163.62;108920;1251;94235;-74
2023/11/23 06:59:09;;;;;;;30.80;14.80;;;;;;;-0.54;76.33;99166.70;108826;1250;110011;-73
2023/11/23 07:01:35;;;;;;;32.20;15.70;;;;;;;-0.56;76.64;99163.43;108851;1250;94701;-74
2023/11/23 07:04:02;;;;;;;29.40;14.80;;;;;;;-0.56;76.23;99151.75;108787;1250;94291;-74
2023/11/23 07:06:29;;;;;;;30.00;15.20;;;;;;;-0.55;76.16;99148.25;108802;1251;94638;-73
2023/11/23 07:08:57;;;;;;;31.70;14.90;;;;;;;-0.53;76.24;99135.48;108870;1250;94278;-73
2023/11/23 07:11:23;;;;;;;32.30;15.50;;;;;;;-0.50;76.47;99149.52;108822;1250;94392;-72
2023/11/23 07:13:51;;;;;;;31.10;15.50;;;;;;;-0.49;75.79;99143.92;108831;1251;94411;-74
2023/11/23 07:16:18;;;;;;;34.20;15.20;;;;;;;-0.53;76.04;99149.25;108857;1251;94540;-72
2023/11/23 07:18:45;;;;;;;29.30;14.30;;;;;;;-0.50;76.12;99143.60;108787;1254;94307;-72
2023/11/23 07:21:14;;;;;;;28.00;14.50;;;;;;;-0.47;76.04;99127.67;108934;1250;96098;-75
2023/11/23 07:23:40;;;;;;;38.20;17.60;;;;;;;-0.48;75.81;99128.91;108846;1251;94358;-70
2023/11/23 07:26:07;;;;;;;30.40;14.80;;;;;;;-0.47;76.19;99131.51;108869;1250;94262;-72
2023/11/23 07:28:33;;;;;;;31.70;14.90;;;;;;;-0.49;75.81;99132.41;108770;1253;94252;-72
2023/11/23 07:31:01;;;;;;;30.90;14.70;;;;;;;-0.46;76.00;99133.21;108822;1251;94614;-71
2023/11/23 07:33:34;;;;;;;29.80;13.90;;;;;;;-0.40;76.23;99123.30;108833;1251;94782;-72
2023/11/23 07:36:04;;;;;;;24.70;10.90;;;;;;;-0.36;76.06;99107.50;108848;1251;94801;-72
2023/11/23 07:38:32;;;;;;;29.00;14.60;;;;;;;-0.33;76.09;99118.05;108746;1251;107624;-73
2023/11/23 07:41:01;;;;;;;29.70;15.00;;;;;;;-0.26;76.32;99118.40;108854;1251;94532;-72
2023/11/23 07:43:30;;;;;;;29.80;15.30;;;;;;;-0.20;76.20;99119.61;108858;1251;94660;-74
2023/11/23 07:45:57;;;;;;;31.00;15.10;;;;;;;-0.16;76.32;99115.85;108919;1250;109105;-74
2023/11/23 07:48:24;;;;;;;34.40;16.90;;;;;;;-0.10;76.51;99120.75;108878;1250;94288;-74
2023/11/23 07:50:51;;;;;;;38.50;17.70;;;;;;;-0.05;75.94;99113.09;108765;1253;94617;-74
2023/11/23 07:53:18;;;;;;;32.80;16.10;;;;;;;0.02;76.26;99107.65;108839;1251;94373;-74
2023/11/23 07:55:48;;;;;;;43.20;19.10;;;;;;;0.06;75.77;99098.15;108927;1250;96951;-69
2023/11/23 07:58:15;;;;;;;36.80;15.40;;;;;;;0.08;76.10;99109.23;108754;1254;94347;-70
2023/11/23 08:00:42;;;;;;;36.40;15.00;;;;;;;0.13;76.03;99111.90;108875;1250;94767;-71
2023/11/23 08:03:10;;;;;;;33.60;15.20;;;;;;;0.18;76.18;99103.20;108816;1251;94290;-71
2023/11/23 08:05:36;;;;;;;28.90;14.70;;;;;;;0.25;76.13;99101.07;108885;1251;94242;-71
2023/11/23 08:08:03;;;;;;;26.70;12.80;;;;;;;0.32;76.32;99098.08;108971;1251;94284;-71
2023/11/23 08:10:29;;;;;;;29.10;14.00;;;;;;;0.39;76.33;99097.52;108882;1251;94286;-69
2023/11/23 08:12:58;;;;;;;25.70;12.00;;;;;;;0.45;76.37;99100.83;108950;1250;94298;-74
2023/11/23 08:15:28;;;;;;;26.90;13.00;;;;;;;0.51;76.19;99096.11;108847;1251;94235;-74
2023/11/23 08:17:56;;;;;;;26.50;12.30;;;;;;;0.56;76.33;99098.56;108835;1251;94384;-72
2023/11/23 08:20:33;;;;;;;26.50;12.50;;;;;;;0.65;76.31;99093.75;108824;1251;110191;-70
2023/11/23 08:23:00;;;;;;;28.60;13.90;;;;;;;0.70;75.43;99088.89;108892;1250;95592;-71
2023/11/23 08:25:27;;;;;;;26.80;13.40;;;;;;;0.70;76.14;99085.90;108896;1251;94257;-68
2023/11/23 08:27:53;;;;;;;28.80;13.60;;;;;;;0.74;75.65;99079.50;108791;1251;94519;-68
2023/11/23 08:30:21;;;;;;;29.40;14.40;;;;;;;0.79;75.70;99066.08;108935;1251;94257;-73
2023/11/23 08:32:48;;;;;;;27.80;13.60;;;;;;;0.81;75.82;99061.98;108852;1251;95604;-75
2023/11/23 08:35:15;;;;;;;29.00;13.30;;;;;;;0.82;76.00;99063.69;108796;1250;94586;-71
2023/11/23 08:37:41;;;;;;;29.80;14.10;;;;;;;0.86;75.96;99059.73;108895;1250;94169;-73
2023/11/23 08:40:08;;;;;;;33.70;16.10;;;;;;;0.86;74.85;99050.82;108862;1250;94694;-72
2023/11/23 08:42:35;;;;;;;28.40;14.30;;;;;;;0.83;75.58;99048.13;108981;1250;94273;-72
2023/11/23 08:45:01;;;;;;;27.20;14.10;;;;;;;0.85;76.16;99048.92;108824;1250;107178;-70
2023/11/23 08:47:28;;;;;;;29.70;15.10;;;;;;;0.90;75.84;99047.05;108906;1251;94638;-70
2023/11/23 08:49:55;;;;;;;31.30;15.40;;;;;;;0.93;75.93;99041.16;108947;1251;94512;-72
2023/11/23 08:52:22;;;;;;;27.20;13.80;;;;;;;0.95;75.93;99042.85;108814;1250;94424;-72
2023/11/23 08:54:49;;;;;;;27.90;14.20;;;;;;;0.95;75.68;99044.27;108891;1254;94361;-75
2023/11/23 08:57:15;;;;;;;26.70;13.50;;;;;;;0.93;75.91;99045.20;108926;1251;94404;-74
2023/11/23 08:59:42;;;;;;;26.50;13.30;;;;;;;0.91;75.69;99043.31;108844;1251;94354;-74
2023/11/23 09:02:09;;;;;;;28.00;13.00;;;;;;;0.93;76.10;99040.33;108892;1250;94666;-70
2023/11/23 09:04:47;;;;;;;28.70;14.90;;;;;;;0.94;76.19;99035.91;108825;1251;95495;-72
2023/11/23 09:07:13;;;;;;;29.70;14.30;;;;;;;0.95;76.22;99028.88;108884;1251;107736;-72
2023/11/23 09:09:40;;;;;;;32.80;16.80;;;;;;;0.95;75.96;99022.59;108805;1251;94278;-72
2023/11/23 09:12:07;;;;;;;32.50;16.00;;;;;;;0.96;76.06;99010.54;108849;1251;94266;-71
2023/11/23 09:14:33;;;;;;;28.80;14.50;;;;;;;0.97;76.34;99000.19;108817;1251;94338;-72
2023/11/23 09:17:15;;;;;;;33.20;16.30;;;;;;;0.99;75.92;98999.77;108880;1251;95752;-73
2023/11/23 09:19:41;;;;;;;32.00;15.40;;;;;;;0.97;75.66;98999.30;108899;1251;94600;-73
2023/11/23 09:22:10;;;;;;;30.70;14.90;;;;;;;0.94;76.10;98991.21;108826;1251;94291;-75
2023/11/23 09:24:37;;;;;;;29.10;14.40;;;;;;;0.96;75.95;98977.16;108805;1253;94652;-72
2023/11/23 09:27:06;;;;;;;31.50;15.10;;;;;;;0.97;75.95;98960.55;108841;1251;109864;-73
2023/11/23 09:29:32;;;;;;;33.50;15.90;;;;;;;0.93;75.75;98948.80;108804;1254;95301;-75
2023/11/23 09:31:59;;;;;;;35.50;16.50;;;;;;;0.89;75.54;98922.60;108819;1251;94339;-73
2023/11/23 09:34:25;;;;;;;30.70;14.10;;;;;;;0.84;75.90;98911.92;108706;1251;94374;-73
2023/11/23 09:36:52;;;;;;;32.90;15.80;;;;;;;0.83;75.84;98913.02;108873;1252;94558;-74
2023/11/23 09:39:18;;;;;;;32.10;16.10;;;;;;;0.80;75.72;98906.16;108883;1252;94645;-74
2023/11/23 09:41:49;;;;;;;32.90;16.60;;;;;;;0.79;75.93;98900.77;108818;1251;107315;-72
2023/11/23 09:44:16;;;;;;;32.70;15.60;;;;;;;0.77;75.83;98892.80;108824;1251;94600;-72
2023/11/23 09:46:43;;;;;;;30.50;14.20;;;;;;;0.75;75.74;98889.03;108866;1251;94289;-73
2023/11/23 09:49:13;;;;;;;29.80;15.20;;;;;;;0.76;75.73;98885.35;108851;1253;94426;-74
2023/11/23 09:51:41;;;;;;;32.00;15.10;;;;;;;0.77;75.39;98877.97;108822;1253;95239;-74
2023/11/23 09:54:08;;;;;;;35.40;16.60;;;;;;;0.78;75.64;98872.71;108883;1251;107699;-73
2023/11/23 09:56:35;;;;;;;37.80;18.80;;;;;;;0.82;75.85;98863.29;108803;1251;94264;-74
2023/11/23 09:59:01;;;;;;;30.80;14.70;;;;;;;0.90;76.09;98869.98;108852;1251;94551;-72
2023/11/23 10:01:29;;;;;;;28.70;14.10;;;;;;;0.99;76.12;98870.21;108801;1252;94246;-72
2023/11/23 10:03:55;;;;;;;32.40;14.40;;;;;;;1.06;76.01;98863.15;108856;1250;94685;-72
2023/11/23 10:06:22;;;;;;;33.20;14.80;;;;;;;1.13;76.18;98864.79;108784;1253;94382;-71
2023/11/23 10:08:49;;;;;;;29.50;15.10;;;;;;;1.18;75.60;98851.34;108851;1255;94271;-74
2023/11/23 10:11:16;;;;;;;28.70;13.40;;;;;;;1.20;75.90;98860.87;108788;1255;110046;-74
2023/11/23 10:13:42;;;;;;;28.10;13.20;;;;;;;1.27;76.00;98858.34;108884;1251;94623;-75
2023/11/23 10:16:12;;;;;;;28.70;13.10;;;;;;;1.34;76.01;98850.40;108820;1254;94197;-75
2023/11/23 10:18:42;;;;;;;29.80;14.30;;;;;;;1.39;76.00;98834.64;108904;1250;94533;-74
2023/11/23 10:21:12;;;;;;;29.40;14.70;;;;;;;1.41;75.02;98819.73;108862;1251;94595;-74
2023/11/23 10:23:43;;;;;;;29.50;14.80;;;;;;;1.41;75.35;98823.19;108841;1251;110738;-76
2023/11/23 10:26:10;;;;;;;28.30;13.30;;;;;;;1.47;75.44;98816.16;108995;1250;95512;-70
2023/11/23 10:28:38;;;;;;;27.50;15.10;;;;;;;1.51;75.07;98804.30;108739;1253;94573;-71
2023/11/23 10:31:05;;;;;;;29.90;14.20;;;;;;;1.51;75.00;98792.58;108936;1250;94336;-72
2023/11/23 10:33:35;;;;;;;33.90;17.40;;;;;;;1.54;75.49;98794.05;108753;1255;95109;-71
2023/11/23 10:36:04;;;;;;;33.60;16.50;;;;;;;1.60;75.50;98781.92;108842;1250;109908;-78
2023/11/23 10:38:38;;;;;;;33.20;15.50;;;;;;;1.62;74.55;98773.10;108776;1251;94364;-78
2023/11/23 10:41:11;;;;;;;33.20;16.90;;;;;;;1.61;74.85;98772.96;108804;1251;107742;-77
2023/11/23 10:43:38;;;;;;;32.80;16.00;;;;;;;1.63;74.79;98766.77;108826;1254;94609;-78
2023/11/23 10:46:07;;;;;;;32.30;15.30;;;;;;;1.67;75.58;98758.02;108891;1251;94654;-77
2023/11/23 10:48:35;;;;;;;33.00;15.50;;;;;;;1.74;75.43;98759.13;108762;1251;111432;-78
2023/11/23 10:51:05;;;;;;;30.80;14.40;;;;;;;1.78;75.15;98750.42;108785;1253;95445;-78
2023/11/23 10:53:32;;;;;;;33.60;15.00;;;;;;;1.79;75.00;98747.04;108774;1253;107101;-76
2023/11/23 10:56:27;;;;;;;29.80;14.70;;;;;;;1.81;75.39;98748.02;108788;1251;94552;-78
2023/11/23 10:58:59;;;;;;;30.80;14.90;;;;;;;1.87;75.20;98737.44;108811;1251;94481;-78
2023/11/23 11:03:36;;;;;;;29.70;14.30;;;;;;;1.92;75.39;98735.99;102849;1292;635678;-81
2023/11/23 11:06:10;;;;;;;33.70;16.50;;;;;;;1.92;75.37;98725.52;104772;1268;94325;-80
2023/11/23 11:08:38;;;;;;;;;;;;;;;1.93;75.40;98720.23;105423;1257;94392;-79
2023/11/23 11:11:11;;;;;;;33.00;16.30;;;;;;;1.94;75.30;98704.46;105519;1253;106285;-79
2023/11/23 11:13:43;;;;;;;30.70;15.60;;;;;;;1.92;75.25;98700.66;105335;1259;94286;-80
2023/11/23 11:16:14;;;;;;;29.20;14.60;;;;;;;1.91;75.14;98690.77;105275;1257;205138;-80
2023/11/23 11:18:52;;;;;;;32.20;15.00;;;;;;;1.89;75.03;98687.70;105405;1257;94801;-77
2023/11/23 11:21:21;;;;;;;32.80;16.70;;;;;;;1.87;75.21;98677.99;105688;1254;94317;-79